ZKDAY YDYS-YMRB

Flight info

Callsign ZKDAY
Flight time 0h 20m
Altitude 4000
Route DCT
Aircraft C172/L-SFG/C

Departure

Time 2026-04-14 20:19
Airport Dysart Airport (YDYS)

Arrival

Time 2026-04-14 20:39
Airport Moranbah Airport (YMRB)
Time Latitude Longitude Altitude Speed Heading
2026-04-14 20:13 -22.62034 148.36369 683 ft 0 kts 318°
2026-04-14 20:16 -22.62033 148.36367 683 ft 0 kts 272°
2026-04-14 20:16 -22.62064 148.36381 683 ft 12 kts 201°
2026-04-14 20:16 -22.62126 148.36347 684 ft 9 kts 236°
2026-04-14 20:16 -22.62145 148.36313 684 ft 6 kts 237°
2026-04-14 20:17 -22.62131 148.36238 685 ft 17 kts 335°
2026-04-14 20:17 -22.62019 148.36163 685 ft 18 kts 324°
2026-04-14 20:17 -22.61918 148.36090 686 ft 21 kts 326°
2026-04-14 20:17 -22.61870 148.36052 685 ft 4 kts 161°
2026-04-14 20:18 -22.62029 148.36166 685 ft 53 kts 146°
2026-04-14 20:18 -22.62428 148.36458 754 ft 81 kts 144°
2026-04-14 20:18 -22.62887 148.36794 988 ft 81 kts 147°
2026-04-14 20:18 -22.63287 148.37222 1168 ft 88 kts 104°
2026-04-14 20:19 -22.63012 148.37835 1375 ft 93 kts 58°
2026-04-14 20:19 -22.62387 148.37986 1529 ft 111 kts 338°
2026-04-14 20:19 -22.61923 148.37527 1742 ft 106 kts 315°
2026-04-14 20:19 -22.61404 148.36942 1852 ft 113 kts 332°
2026-04-14 20:20 -22.60766 148.36448 2039 ft 111 kts 332°
2026-04-14 20:20 -22.60163 148.35904 2160 ft 119 kts 328°
2026-04-14 20:20 -22.59532 148.35304 2319 ft 121 kts 327°
2026-04-14 20:20 -22.58924 148.34691 2485 ft 123 kts 326°
2026-04-14 20:21 -22.58283 148.34014 2505 ft 135 kts 324°
2026-04-14 20:21 -22.57570 148.33334 2523 ft 136 kts 337°
2026-04-14 20:21 -22.56724 148.33001 2583 ft 123 kts
2026-04-14 20:21 -22.55882 148.32972 2614 ft 121 kts 10°
2026-04-14 20:22 -22.55017 148.32955 2561 ft 129 kts
2026-04-14 20:22 -22.54105 148.32933 2511 ft 130 kts
2026-04-14 20:22 -22.53216 148.32946 2473 ft 127 kts 15°
2026-04-14 20:22 -22.52377 148.33132 2445 ft 124 kts 24°
2026-04-14 20:23 -22.51547 148.33343 2498 ft 121 kts 23°
2026-04-14 20:23 -22.50719 148.33534 2496 ft 123 kts 22°
2026-04-14 20:23 -22.49854 148.33643 2463 ft 129 kts 11°
2026-04-14 20:23 -22.48949 148.33577 2472 ft 133 kts 359°
2026-04-14 20:24 -22.48059 148.33222 2496 ft 142 kts 339°
2026-04-14 20:24 -22.47229 148.32689 2523 ft 142 kts 339°
2026-04-14 20:24 -22.46393 148.32145 2513 ft 139 kts 338°
2026-04-14 20:24 -22.45526 148.31716 2549 ft 136 kts 349°
2026-04-14 20:25 -22.44666 148.31338 2581 ft 138 kts 345°
2026-04-14 20:25 -22.43787 148.30864 2514 ft 145 kts 341°
2026-04-14 20:25 -22.42965 148.30396 2503 ft 143 kts 342°
2026-04-14 20:25 -22.42092 148.29894 2508 ft 142 kts 341°
2026-04-14 20:26 -22.41208 148.29403 2502 ft 143 kts 342°
2026-04-14 20:26 -22.40326 148.28919 2496 ft 141 kts 342°
2026-04-14 20:26 -22.39462 148.28444 2491 ft 138 kts 343°
2026-04-14 20:26 -22.38615 148.27960 2489 ft 138 kts 342°
2026-04-14 20:27 -22.37769 148.27463 2493 ft 139 kts 343°
2026-04-14 20:27 -22.36891 148.27137 2495 ft 134 kts 358°
2026-04-14 20:27 -22.35983 148.27018 2477 ft 132 kts
2026-04-14 20:27 -22.35072 148.26739 2415 ft 141 kts 345°
2026-04-14 20:28 -22.34188 148.26277 2366 ft 141 kts 342°
2026-04-14 20:28 -22.33306 148.25798 2304 ft 143 kts 342°
2026-04-14 20:28 -22.32424 148.25290 2235 ft 145 kts 339°
2026-04-14 20:28 -22.31547 148.24741 2191 ft 144 kts 338°
2026-04-14 20:29 -22.30753 148.24193 2313 ft 133 kts 337°
2026-04-14 20:29 -22.29963 148.23645 2316 ft 138 kts 336°
2026-04-14 20:29 -22.29167 148.23118 2351 ft 133 kts 339°
2026-04-14 20:29 -22.28358 148.22575 2324 ft 141 kts 331°
2026-04-14 20:30 -22.27564 148.21973 2332 ft 136 kts 338°
2026-04-14 20:30 -22.26751 148.21423 2254 ft 143 kts 335°
2026-04-14 20:30 -22.25889 148.20883 2267 ft 137 kts 341°
2026-04-14 20:30 -22.25097 148.20369 2371 ft 134 kts 338°
2026-04-14 20:31 -22.24219 148.19978 2274 ft 137 kts 354°
2026-04-14 20:31 -22.23371 148.19533 2313 ft 135 kts 342°
2026-04-14 20:31 -22.22614 148.19037 2478 ft 127 kts 340°
2026-04-14 20:31 -22.21850 148.18501 2492 ft 135 kts 336°
2026-04-14 20:32 -22.21050 148.17924 2497 ft 141 kts 335°
2026-04-14 20:32 -22.20234 148.17320 2500 ft 144 kts 334°
2026-04-14 20:32 -22.19414 148.16693 2501 ft 144 kts 333°
2026-04-14 20:32 -22.18600 148.16068 2504 ft 141 kts 340°
2026-04-14 20:33 -22.17732 148.15621 2499 ft 137 kts 349°
2026-04-14 20:33 -22.16859 148.15211 2500 ft 137 kts 348°
2026-04-14 20:33 -22.15979 148.14805 2497 ft 138 kts 349°
2026-04-14 20:34 -22.14172 148.14253 2427 ft 137 kts 357°
2026-04-14 20:34 -22.13256 148.13998 2359 ft 138 kts 356°
2026-04-14 20:34 -22.12322 148.13747 2295 ft 139 kts 358°
2026-04-14 20:34 -22.11386 148.13492 2217 ft 138 kts 357°
2026-04-14 20:35 -22.10451 148.13248 2146 ft 139 kts 358°
2026-04-14 20:35 -22.09507 148.12999 2072 ft 139 kts 356°
2026-04-14 20:35 -22.08562 148.12746 1992 ft 142 kts 348°
2026-04-14 20:35 -22.07813 148.12017 1902 ft 148 kts 314°
2026-04-14 20:36 -22.07163 148.11173 1830 ft 145 kts 314°
2026-04-14 20:36 -22.06509 148.10357 1753 ft 146 kts 315°
2026-04-14 20:36 -22.05759 148.09700 1696 ft 131 kts 354°
2026-04-14 20:36 -22.04913 148.09608 1689 ft 116 kts
2026-04-14 20:37 -22.04147 148.09486 1679 ft 107 kts 360°
2026-04-14 20:37 -22.03412 148.09318 1653 ft 115 kts 338°
2026-04-14 20:37 -22.03101 148.08555 1564 ft 113 kts 266°
2026-04-14 20:37 -22.03187 148.07733 1469 ft 104 kts 257°
2026-04-14 20:38 -22.03577 148.07224 1328 ft 88 kts 180°
2026-04-14 20:38 -22.04140 148.07326 1086 ft 77 kts 164°
2026-04-14 20:38 -22.04642 148.07429 899 ft 70 kts 165°
2026-04-14 20:38 -22.05065 148.07515 755 ft 59 kts 167°
2026-04-14 20:39 -22.05393 148.07572 740 ft 35 kts 172°
2026-04-14 20:39 -22.05512 148.07581 744 ft 3 kts 142°
2026-04-14 20:39 -22.05491 148.07590 743 ft 6 kts 347°
2026-04-14 20:39 -22.05412 148.07577 741 ft 16 kts 358°
2026-04-14 20:40 -22.05301 148.07555 737 ft 16 kts 351°
2026-04-14 20:40 -22.05192 148.07528 734 ft 16 kts 332°
2026-04-14 20:40 -22.05161 148.07498 734 ft 0 kts 332°